createdAt,value
2018-07-22T00:00:36.192Z,1015.26
2018-07-22T00:01:36.246Z,1015.28
2018-07-22T00:02:36.359Z,1015.27
2018-07-22T00:03:36.300Z,1015.27
2018-07-22T00:04:36.373Z,1015.29
2018-07-22T00:05:36.359Z,1015.25
2018-07-22T00:06:36.356Z,1015.28
2018-07-22T00:07:36.272Z,1015.29
2018-07-22T00:08:36.216Z,1015.25
2018-07-22T00:09:36.460Z,1015.25
2018-07-22T00:10:36.259Z,1015.24
2018-07-22T00:11:36.317Z,1015.26
2018-07-22T00:12:36.268Z,1015.2
2018-07-22T00:13:36.360Z,1015.22
2018-07-22T00:14:36.268Z,1015.21
2018-07-22T00:15:36.296Z,1015.16
2018-07-22T00:16:36.168Z,1015.16
2018-07-22T00:17:36.167Z,1015.14
2018-07-22T00:18:36.322Z,1015.17
2018-07-22T00:19:36.372Z,1015.17
2018-07-22T00:20:36.309Z,1015.17
2018-07-22T00:21:36.172Z,1015.16
2018-07-22T00:22:36.344Z,1015.13
2018-07-22T00:23:36.403Z,1015.13
2018-07-22T00:24:36.336Z,1015.18
2018-07-22T00:25:36.435Z,1015.11
2018-07-22T00:26:36.123Z,1015.14
2018-07-22T00:27:36.276Z,1015.15
2018-07-22T00:28:36.415Z,1015.11
2018-07-22T00:29:36.218Z,1015.12
2018-07-22T00:30:36.249Z,1015.13
2018-07-22T00:31:36.244Z,1015.07
2018-07-22T00:32:36.462Z,1015.09
2018-07-22T00:33:36.289Z,1015.07
2018-07-22T00:34:36.350Z,1015.1
2018-07-22T00:35:36.116Z,1015.05
2018-07-22T00:36:36.264Z,1015.05
2018-07-22T00:37:36.235Z,1015.05
2018-07-22T00:38:36.175Z,1015.07
2018-07-22T00:39:36.478Z,1015.05
2018-07-22T00:40:36.251Z,1015.06
2018-07-22T00:41:36.209Z,1015.05
2018-07-22T00:42:36.271Z,1015.03
2018-07-22T00:43:36.301Z,1015.06
2018-07-22T00:44:36.112Z,1015.09
2018-07-22T00:45:36.178Z,1015.11
2018-07-22T00:46:36.160Z,1015.1
2018-07-22T00:47:36.279Z,1015.09
2018-07-22T00:48:36.222Z,1015.12
2018-07-22T00:49:36.167Z,1015.1
2018-07-22T00:50:36.192Z,1015.12
2018-07-22T00:51:36.297Z,1015.11
2018-07-22T00:52:36.317Z,1015.16
2018-07-22T00:53:36.073Z,1015.21
2018-07-22T00:54:36.230Z,1015.17
2018-07-22T00:55:36.159Z,1015.22
2018-07-22T00:56:36.181Z,1015.22
2018-07-22T00:57:36.330Z,1015.22
2018-07-22T00:58:36.246Z,1015.23
2018-07-22T00:59:36.331Z,1015.22
2018-07-22T01:00:36.097Z,1015.2
2018-07-22T01:01:36.280Z,1015.19
2018-07-22T01:02:36.289Z,1015.24
2018-07-22T01:03:36.247Z,1015.19
2018-07-22T01:04:36.320Z,1015.26
2018-07-22T01:05:36.228Z,1015.22
2018-07-22T01:06:36.270Z,1015.26
2018-07-22T01:07:36.411Z,1015.26
2018-07-22T01:08:36.168Z,1015.24
2018-07-22T01:09:36.152Z,1015.22
2018-07-22T01:10:36.291Z,1015.22
2018-07-22T01:11:36.464Z,1015.19
2018-07-22T01:12:36.307Z,1015.14
2018-07-22T01:13:36.424Z,1015.11
2018-07-22T01:14:36.458Z,1015.18
2018-07-22T01:15:36.176Z,1015.17
2018-07-22T01:16:36.341Z,1015.16
2018-07-22T01:17:36.108Z,1015.15
2018-07-22T01:18:36.161Z,1015.16
2018-07-22T01:19:36.260Z,1015.16
2018-07-22T01:20:36.299Z,1015.16
2018-07-22T01:21:36.344Z,1015.18
2018-07-22T01:22:36.340Z,1015.13
2018-07-22T01:23:36.384Z,1015.19
2018-07-22T01:24:36.240Z,1015.16
2018-07-22T01:25:36.111Z,1015.19
2018-07-22T01:26:36.279Z,1015.13
2018-07-22T01:27:36.330Z,1015.14
2018-07-22T01:28:36.281Z,1015.14
2018-07-22T01:29:36.397Z,1015.09
2018-07-22T01:30:36.279Z,1015.13
2018-07-22T01:31:36.179Z,1015.14
2018-07-22T01:32:36.292Z,1015.11
2018-07-22T01:33:36.271Z,1015.09
2018-07-22T01:34:36.312Z,1015.14
2018-07-22T01:35:36.209Z,1015.11
2018-07-22T01:36:36.151Z,1015.15
2018-07-22T01:37:36.323Z,1015.16
2018-07-22T01:38:36.398Z,1015.12
2018-07-22T01:39:36.205Z,1015.11
2018-07-22T01:40:36.293Z,1015.16
2018-07-22T01:41:36.302Z,1015.12
2018-07-22T01:42:36.563Z,1015.08
2018-07-22T01:43:36.326Z,1015.1
2018-07-22T01:44:36.283Z,1015.12
2018-07-22T01:45:36.212Z,1015.11
2018-07-22T01:46:36.164Z,1015.09
2018-07-22T01:47:36.065Z,1015.09
2018-07-22T01:48:36.295Z,1015.12
2018-07-22T01:49:36.207Z,1015.14
2018-07-22T01:50:36.227Z,1015.13
2018-07-22T01:51:36.193Z,1015.15
2018-07-22T01:52:36.166Z,1015.14
2018-07-22T01:53:36.243Z,1015.13
2018-07-22T01:54:36.102Z,1015.16
2018-07-22T01:55:36.257Z,1015.18
2018-07-22T01:56:36.117Z,1015.14
2018-07-22T01:57:36.165Z,1015.25
2018-07-22T01:58:36.087Z,1015.23
2018-07-22T01:59:36.183Z,1015.27
2018-07-22T02:00:36.164Z,1015.26
2018-07-22T02:01:36.554Z,1015.23
2018-07-22T02:02:36.121Z,1015.25
2018-07-22T02:03:36.004Z,1015.24
2018-07-22T02:04:36.189Z,1015.25
2018-07-22T02:05:36.128Z,1015.24
2018-07-22T02:06:36.331Z,1015.28
2018-07-22T02:07:36.233Z,1015.26
2018-07-22T02:08:36.116Z,1015.27
2018-07-22T02:09:36.293Z,1015.27
2018-07-22T02:10:36.316Z,1015.32
2018-07-22T02:11:36.134Z,1015.28
2018-07-22T02:12:35.988Z,1015.32
2018-07-22T02:13:36.261Z,1015.24
2018-07-22T02:14:36.126Z,1015.31
2018-07-22T02:15:36.094Z,1015.28
2018-07-22T02:16:36.277Z,1015.26
2018-07-22T02:17:36.210Z,1015.29
2018-07-22T02:18:36.278Z,1015.25
2018-07-22T02:19:36.097Z,1015.25
2018-07-22T02:20:36.230Z,1015.3
2018-07-22T02:21:36.307Z,1015.29
2018-07-22T02:22:36.433Z,1015.3
2018-07-22T02:23:36.049Z,1015.31
2018-07-22T02:24:36.290Z,1015.3
2018-07-22T02:25:36.242Z,1015.26
2018-07-22T02:26:36.267Z,1015.29
2018-07-22T02:27:36.181Z,1015.31
2018-07-22T02:28:36.303Z,1015.27
2018-07-22T02:29:36.183Z,1015.28
2018-07-22T02:30:36.100Z,1015.29
2018-07-22T02:31:36.296Z,1015.29
2018-07-22T02:32:36.246Z,1015.35
2018-07-22T02:33:36.286Z,1015.31
2018-07-22T02:34:36.323Z,1015.32
2018-07-22T02:35:36.160Z,1015.32
2018-07-22T02:36:36.215Z,1015.26
2018-07-22T02:37:36.347Z,1015.28
2018-07-22T02:38:36.171Z,1015.25
2018-07-22T02:39:36.218Z,1015.26
2018-07-22T02:40:36.300Z,1015.23
2018-07-22T02:41:36.380Z,1015.21
2018-07-22T02:42:36.193Z,1015.18
2018-07-22T02:43:36.378Z,1015.16
2018-07-22T02:44:36.282Z,1015.2
2018-07-22T02:45:36.301Z,1015.17
2018-07-22T02:46:36.522Z,1015.21
2018-07-22T02:47:36.514Z,1015.16
2018-07-22T02:48:36.172Z,1015.14
2018-07-22T02:49:36.165Z,1015.14
2018-07-22T02:50:36.173Z,1015.14
2018-07-22T02:51:36.752Z,1015.09
2018-07-22T02:52:36.249Z,1015.07
2018-07-22T02:53:36.222Z,1015.12
2018-07-22T02:54:36.498Z,1015.06
2018-07-22T02:55:36.244Z,1015.05
2018-07-22T02:56:36.182Z,1015.07
2018-07-22T02:57:36.053Z,1015.03
2018-07-22T02:58:36.317Z,1015
2018-07-22T02:59:36.333Z,1015.01
2018-07-22T03:00:36.291Z,1015
2018-07-22T03:01:36.379Z,1014.99
2018-07-22T03:02:36.185Z,1015
2018-07-22T03:03:36.375Z,1014.99
2018-07-22T03:04:36.288Z,1015
2018-07-22T03:05:36.436Z,1015.03
2018-07-22T03:06:36.308Z,1015.07
2018-07-22T03:07:36.371Z,1015.07
2018-07-22T03:08:36.250Z,1015.06
2018-07-22T03:09:36.500Z,1015.05
2018-07-22T03:10:36.275Z,1015.1
2018-07-22T03:11:36.360Z,1015.08
2018-07-22T03:12:36.320Z,1015.09
2018-07-22T03:13:36.319Z,1015.11
2018-07-22T03:14:36.349Z,1015.11
2018-07-22T03:15:36.047Z,1015.16
2018-07-22T03:16:36.282Z,1015.18
2018-07-22T03:17:36.077Z,1015.13
2018-07-22T03:18:36.210Z,1015.19
2018-07-22T03:19:36.054Z,1015.16
2018-07-22T03:20:35.909Z,1015.16
2018-07-22T03:21:37.226Z,1015.11
2018-07-22T03:22:36.353Z,1015.12
2018-07-22T03:23:36.318Z,1015.13
2018-07-22T03:24:36.301Z,1015.09
2018-07-22T03:25:36.193Z,1015.11
2018-07-22T03:26:36.011Z,1015.07
2018-07-22T03:27:36.272Z,1015.1
2018-07-22T03:28:36.278Z,1015.11
2018-07-22T03:29:36.209Z,1015.15
2018-07-22T03:30:36.090Z,1015.1
2018-07-22T03:31:36.345Z,1015.14
2018-07-22T03:32:36.281Z,1015.14
2018-07-22T03:33:36.228Z,1015.16
2018-07-22T03:34:36.131Z,1015.16
2018-07-22T03:35:36.051Z,1015.13
2018-07-22T03:36:36.051Z,1015.22
2018-07-22T03:37:36.192Z,1015.17
2018-07-22T03:38:36.228Z,1015.2
2018-07-22T03:39:36.373Z,1015.2
2018-07-22T03:40:36.065Z,1015.17
2018-07-22T03:41:36.455Z,1015.23
2018-07-22T03:42:36.592Z,1015.25
2018-07-22T03:43:36.408Z,1015.22
2018-07-22T03:44:36.188Z,1015.26
2018-07-22T03:45:36.260Z,1015.26
2018-07-22T03:46:36.188Z,1015.29
2018-07-22T03:47:36.338Z,1015.28
2018-07-22T03:48:36.297Z,1015.31
2018-07-22T03:49:36.022Z,1015.3
2018-07-22T03:50:36.252Z,1015.34
2018-07-22T03:51:36.092Z,1015.33
2018-07-22T03:52:36.237Z,1015.33
2018-07-22T03:53:45.947Z,1015.34
2018-07-22T03:54:36.336Z,1015.34
2018-07-22T03:55:36.329Z,1015.34
2018-07-22T03:56:36.282Z,1015.32
2018-07-22T03:57:36.003Z,1015.32
2018-07-22T03:58:36.293Z,1015.34
2018-07-22T03:59:36.162Z,1015.3
2018-07-22T04:00:36.239Z,1015.31
2018-07-22T04:01:36.196Z,1015.3
2018-07-22T04:02:36.255Z,1015.31
2018-07-22T04:03:36.137Z,1015.28
2018-07-22T04:04:36.054Z,1015.34
2018-07-22T04:05:36.157Z,1015.31
2018-07-22T04:06:36.487Z,1015.3
2018-07-22T04:07:36.383Z,1015.33
2018-07-22T04:08:36.057Z,1015.35
2018-07-22T04:09:36.020Z,1015.32
2018-07-22T04:10:36.453Z,1015.33
2018-07-22T04:11:36.167Z,1015.35
2018-07-22T04:12:35.996Z,1015.35
2018-07-22T04:13:36.290Z,1015.35
2018-07-22T04:14:36.259Z,1015.39
2018-07-22T04:15:36.680Z,1015.43
2018-07-22T04:16:36.228Z,1015.37
2018-07-22T04:17:36.268Z,1015.41
2018-07-22T04:18:36.060Z,1015.37
2018-07-22T04:19:36.238Z,1015.35
2018-07-22T04:20:36.268Z,1015.44
2018-07-22T04:21:37.708Z,1015.43
2018-07-22T04:22:36.370Z,1015.44
2018-07-22T04:23:36.119Z,1015.45
2018-07-22T04:24:36.433Z,1015.44
2018-07-22T04:25:36.259Z,1015.42
2018-07-22T04:26:36.302Z,1015.45
2018-07-22T04:27:36.011Z,1015.43
2018-07-22T04:28:36.363Z,1015.46
2018-07-22T04:29:36.365Z,1015.44
2018-07-22T04:30:36.253Z,1015.46
2018-07-22T04:31:36.176Z,1015.46
2018-07-22T04:32:36.246Z,1015.44
2018-07-22T04:33:36.066Z,1015.49
2018-07-22T04:34:36.179Z,1015.46
2018-07-22T04:35:36.167Z,1015.53
2018-07-22T04:36:36.013Z,1015.53
2018-07-22T04:37:36.135Z,1015.54
2018-07-22T04:38:36.078Z,1015.56
2018-07-22T04:39:36.193Z,1015.56
2018-07-22T04:40:36.219Z,1015.58
2018-07-22T04:41:36.290Z,1015.56
2018-07-22T04:42:36.167Z,1015.58
2018-07-22T04:43:36.217Z,1015.57
2018-07-22T04:44:36.204Z,1015.57
2018-07-22T04:45:35.965Z,1015.59
2018-07-22T04:46:36.238Z,1015.58
2018-07-22T04:47:36.164Z,1015.59
2018-07-22T04:48:36.398Z,1015.59
2018-07-22T04:49:36.209Z,1015.6
2018-07-22T04:50:36.155Z,1015.61
2018-07-22T04:51:36.388Z,1015.64
2018-07-22T04:52:36.402Z,1015.66
2018-07-22T04:53:36.463Z,1015.67
2018-07-22T04:54:35.994Z,1015.71
2018-07-22T04:55:36.212Z,1015.72
2018-07-22T04:56:36.155Z,1015.69
2018-07-22T04:57:36.335Z,1015.67
2018-07-22T04:58:36.313Z,1015.71
2018-07-22T04:59:36.829Z,1015.66
2018-07-22T05:00:35.942Z,1015.68
2018-07-22T05:01:36.266Z,1015.74
2018-07-22T05:02:36.314Z,1015.74
2018-07-22T05:03:36.063Z,1015.72
2018-07-22T05:04:36.195Z,1015.76
2018-07-22T05:05:36.049Z,1015.75
2018-07-22T05:06:36.215Z,1015.79
2018-07-22T05:07:36.586Z,1015.73
2018-07-22T05:08:36.119Z,1015.76
2018-07-22T05:09:35.923Z,1015.79
2018-07-22T05:10:36.541Z,1015.76
2018-07-22T05:11:36.559Z,1015.76
2018-07-22T05:12:36.040Z,1015.8
2018-07-22T05:13:36.150Z,1015.81
2018-07-22T05:14:36.235Z,1015.83
2018-07-22T05:15:36.211Z,1015.83
2018-07-22T05:16:36.299Z,1015.87
2018-07-22T05:17:36.466Z,1015.81
2018-07-22T05:18:36.212Z,1015.85
2018-07-22T05:19:36.012Z,1015.83
2018-07-22T05:20:36.071Z,1015.84
2018-07-22T05:21:36.066Z,1015.83
2018-07-22T05:22:36.157Z,1015.82
2018-07-22T05:23:36.308Z,1015.87
2018-07-22T05:24:36.138Z,1015.87
2018-07-22T05:25:36.204Z,1015.95
2018-07-22T05:26:36.132Z,1015.94
2018-07-22T05:27:36.561Z,1015.97
2018-07-22T05:28:36.029Z,1015.94
2018-07-22T05:29:36.183Z,1015.92
2018-07-22T05:30:36.032Z,1015.92
2018-07-22T05:31:36.250Z,1015.89
2018-07-22T05:32:36.296Z,1015.92
2018-07-22T05:33:36.560Z,1015.88
2018-07-22T05:34:35.964Z,1015.87
2018-07-22T05:35:36.305Z,1015.91
2018-07-22T05:36:36.367Z,1015.89
2018-07-22T05:37:36.346Z,1015.91
2018-07-22T05:38:36.690Z,1015.94
2018-07-22T05:39:35.960Z,1015.93
2018-07-22T05:40:36.059Z,1015.93
2018-07-22T05:41:36.045Z,1015.94
2018-07-22T05:42:36.312Z,1015.96
2018-07-22T05:43:36.072Z,1015.95
2018-07-22T05:44:36.127Z,1015.97
2018-07-22T05:45:36.043Z,1015.96
2018-07-22T05:46:36.030Z,1015.92
2018-07-22T05:47:36.025Z,1015.95
2018-07-22T05:48:36.031Z,1015.91
2018-07-22T05:49:36.306Z,1015.95
2018-07-22T05:50:36.266Z,1015.94
2018-07-22T05:51:36.117Z,1015.97
2018-07-22T05:52:36.251Z,1016.01
2018-07-22T05:53:36.254Z,1016.04
2018-07-22T05:54:36.059Z,1015.99
2018-07-22T05:55:36.424Z,1016.05
2018-07-22T05:56:36.558Z,1016.09
2018-07-22T05:57:35.994Z,1016.05
2018-07-22T05:58:36.108Z,1016.07
2018-07-22T05:59:36.063Z,1016.05
2018-07-22T06:00:36.308Z,1016.04
2018-07-22T06:01:36.188Z,1016.03
2018-07-22T06:02:36.371Z,1016.08
2018-07-22T06:03:35.987Z,1016.06
2018-07-22T06:04:36.535Z,1016.08
2018-07-22T06:05:36.197Z,1016.13
2018-07-22T06:06:35.978Z,1016.12
2018-07-22T06:07:36.252Z,1016.14
2018-07-22T06:08:36.074Z,1016.16
2018-07-22T06:09:36.061Z,1016.14
2018-07-22T06:10:36.020Z,1016.14
2018-07-22T06:11:36.045Z,1016.14
2018-07-22T06:12:36.169Z,1016.12
2018-07-22T06:13:36.078Z,1016.13
2018-07-22T06:14:36.518Z,1016.14
2018-07-22T06:15:35.998Z,1016.15
2018-07-22T06:16:36.422Z,1016.19
2018-07-22T06:17:36.074Z,1016.2
2018-07-22T06:18:36.203Z,1016.23
2018-07-22T06:19:36.337Z,1016.24
2018-07-22T06:20:36.200Z,1016.25
2018-07-22T06:21:36.070Z,1016.23
2018-07-22T06:22:36.391Z,1016.25
2018-07-22T06:23:36.536Z,1016.25
2018-07-22T06:24:36.013Z,1016.29
2018-07-22T06:25:36.182Z,1016.28
2018-07-22T06:26:36.318Z,1016.32
2018-07-22T06:27:36.554Z,1016.3
2018-07-22T06:28:36.330Z,1016.29
2018-07-22T06:29:36.063Z,1016.27
2018-07-22T06:30:36.160Z,1016.27
2018-07-22T06:31:36.728Z,1016.29
2018-07-22T06:32:36.107Z,1016.31
2018-07-22T06:33:35.955Z,1016.28
2018-07-22T06:34:36.168Z,1016.29
2018-07-22T06:35:36.369Z,1016.29
2018-07-22T06:36:36.175Z,1016.33
2018-07-22T06:37:36.481Z,1016.3
2018-07-22T06:38:36.122Z,1016.3
2018-07-22T06:39:36.067Z,1016.31
2018-07-22T06:40:36.163Z,1016.32
2018-07-22T06:41:36.165Z,1016.32
2018-07-22T06:42:36.002Z,1016.29
2018-07-22T06:43:36.077Z,1016.36
2018-07-22T06:44:36.123Z,1016.32
2018-07-22T06:45:36.353Z,1016.3
2018-07-22T06:46:36.242Z,1016.35
2018-07-22T06:47:36.083Z,1016.29
2018-07-22T06:48:36.164Z,1016.31
2018-07-22T06:49:36.256Z,1016.3
2018-07-22T06:50:36.152Z,1016.3
2018-07-22T06:51:36.066Z,1016.3
2018-07-22T06:52:36.128Z,1016.34
2018-07-22T06:53:36.492Z,1016.32
2018-07-22T06:54:36.279Z,1016.29
2018-07-22T06:55:36.187Z,1016.33
2018-07-22T06:56:36.049Z,1016.39
2018-07-22T06:57:36.057Z,1016.37
2018-07-22T06:58:36.226Z,1016.37
2018-07-22T06:59:36.206Z,1016.38
2018-07-22T07:00:35.965Z,1016.37
2018-07-22T07:01:36.015Z,1016.35
2018-07-22T07:02:36.101Z,1016.38
2018-07-22T07:03:36.150Z,1016.36
2018-07-22T07:04:36.158Z,1016.33
2018-07-22T07:05:36.486Z,1016.33
2018-07-22T07:06:36.261Z,1016.3
2018-07-22T07:07:36.117Z,1016.33
2018-07-22T07:08:36.247Z,1016.32
2018-07-22T07:09:36.134Z,1016.3
2018-07-22T07:10:36.052Z,1016.35
2018-07-22T07:11:36.020Z,1016.32
2018-07-22T07:12:36.169Z,1016.36
2018-07-22T07:13:36.256Z,1016.36
2018-07-22T07:14:36.231Z,1016.38
2018-07-22T07:15:36.248Z,1016.38
2018-07-22T07:16:36.155Z,1016.36
2018-07-22T07:17:36.201Z,1016.37
2018-07-22T07:18:46.202Z,1016.38
2018-07-22T07:19:36.018Z,1016.4
2018-07-22T07:20:36.205Z,1016.4
2018-07-22T07:21:36.209Z,1016.39
2018-07-22T07:22:36.124Z,1016.43
2018-07-22T07:23:36.024Z,1016.39
2018-07-22T07:24:36.150Z,1016.39
2018-07-22T07:25:36.018Z,1016.36
2018-07-22T07:26:36.335Z,1016.37
2018-07-22T07:27:36.115Z,1016.39
2018-07-22T07:28:36.079Z,1016.41
2018-07-22T07:29:36.188Z,1016.43
2018-07-22T07:30:36.071Z,1016.41
2018-07-22T07:31:36.024Z,1016.44
2018-07-22T07:32:36.097Z,1016.46
2018-07-22T07:33:36.871Z,1016.49
2018-07-22T07:34:35.911Z,1016.5
2018-07-22T07:35:36.346Z,1016.49
2018-07-22T07:36:36.357Z,1016.52
2018-07-22T07:37:35.881Z,1016.51
2018-07-22T07:38:36.134Z,1016.49
2018-07-22T07:39:36.213Z,1016.49
2018-07-22T07:40:36.233Z,1016.53
2018-07-22T07:41:36.132Z,1016.54
2018-07-22T07:42:36.255Z,1016.51
2018-07-22T07:43:36.129Z,1016.55
2018-07-22T07:44:36.540Z,1016.54
2018-07-22T07:45:36.067Z,1016.56
2018-07-22T07:46:36.049Z,1016.58
2018-07-22T07:47:36.133Z,1016.55
2018-07-22T07:48:36.234Z,1016.62
2018-07-22T07:49:36.266Z,1016.6
2018-07-22T07:50:36.036Z,1016.6
2018-07-22T07:51:36.268Z,1016.59
2018-07-22T07:53:06.226Z,1016.58
2018-07-22T07:53:36.238Z,1016.57
2018-07-22T07:54:36.115Z,1016.59
2018-07-22T07:55:36.009Z,1016.56
2018-07-22T07:56:36.050Z,1016.57
2018-07-22T07:57:36.173Z,1016.59
2018-07-22T07:58:36.261Z,1016.59
2018-07-22T07:59:36.318Z,1016.58
2018-07-22T08:00:36.016Z,1016.6
2018-07-22T08:01:36.092Z,1016.63
2018-07-22T08:02:36.066Z,1016.6
2018-07-22T08:03:36.109Z,1016.61
2018-07-22T08:04:36.028Z,1016.59
2018-07-22T08:05:37.092Z,1016.6
2018-07-22T08:06:36.203Z,1016.6
2018-07-22T08:07:36.236Z,1016.56
2018-07-22T08:08:36.225Z,1016.61
2018-07-22T08:09:36.343Z,1016.6
2018-07-22T08:10:36.128Z,1016.58
2018-07-22T08:11:36.719Z,1016.59
2018-07-22T08:12:36.211Z,1016.61
2018-07-22T08:13:36.085Z,1016.62
2018-07-22T08:14:36.133Z,1016.61
2018-07-22T08:15:36.103Z,1016.6
2018-07-22T08:16:36.168Z,1016.62
2018-07-22T08:17:36.012Z,1016.6
2018-07-22T08:18:36.121Z,1016.58
2018-07-22T08:19:35.970Z,1016.59
2018-07-22T08:20:36.111Z,1016.59
2018-07-22T08:21:36.568Z,1016.59
2018-07-22T08:22:35.966Z,1016.61
2018-07-22T08:23:35.980Z,1016.6
2018-07-22T08:24:36.062Z,1016.6
2018-07-22T08:25:36.065Z,1016.58
2018-07-22T08:26:36.419Z,1016.62
2018-07-22T08:27:35.948Z,1016.59
2018-07-22T08:28:36.043Z,1016.61
2018-07-22T08:29:36.068Z,1016.64
2018-07-22T08:30:36.430Z,1016.61
2018-07-22T08:31:35.959Z,1016.57
2018-07-22T08:32:36.303Z,1016.59
2018-07-22T08:33:36.056Z,1016.58
2018-07-22T08:34:36.146Z,1016.6
2018-07-22T08:35:36.061Z,1016.57
2018-07-22T08:36:36.220Z,1016.55
2018-07-22T08:37:36.246Z,1016.55
2018-07-22T08:38:36.224Z,1016.53
2018-07-22T08:39:36.033Z,1016.51
2018-07-22T08:40:35.995Z,1016.52
2018-07-22T08:41:36.812Z,1016.5
2018-07-22T08:42:36.075Z,1016.5
2018-07-22T08:43:36.301Z,1016.48
2018-07-22T08:44:36.139Z,1016.51
2018-07-22T08:45:36.051Z,1016.53
2018-07-22T08:46:36.141Z,1016.52
2018-07-22T08:47:36.292Z,1016.52
2018-07-22T08:48:36.127Z,1016.51
2018-07-22T08:49:35.960Z,1016.56
2018-07-22T08:50:36.191Z,1016.57
2018-07-22T08:51:36.053Z,1016.53
2018-07-22T08:52:35.977Z,1016.56
2018-07-22T08:53:36.089Z,1016.53
2018-07-22T08:54:36.117Z,1016.57
2018-07-22T08:55:36.296Z,1016.57
2018-07-22T08:56:36.061Z,1016.56
2018-07-22T08:57:36.035Z,1016.52
2018-07-22T08:58:35.961Z,1016.52
2018-07-22T08:59:35.875Z,1016.49
2018-07-22T09:00:36.070Z,1016.53
2018-07-22T09:01:36.172Z,1016.52
2018-07-22T09:02:36.152Z,1016.59
2018-07-22T09:03:36.044Z,1016.54
2018-07-22T09:04:36.055Z,1016.58
2018-07-22T09:05:36.360Z,1016.58
2018-07-22T09:06:36.279Z,1016.58
2018-07-22T09:07:35.984Z,1016.6
2018-07-22T09:08:36.158Z,1016.58
2018-07-22T09:09:36.025Z,1016.61
2018-07-22T09:10:36.047Z,1016.64
2018-07-22T09:11:36.200Z,1016.6
2018-07-22T09:12:36.396Z,1016.57
2018-07-22T09:13:36.033Z,1016.63
2018-07-22T09:14:36.115Z,1016.65
2018-07-22T09:15:36.218Z,1016.65
2018-07-22T09:16:35.798Z,1016.63
2018-07-22T09:17:36.241Z,1016.62
2018-07-22T09:18:36.174Z,1016.6
2018-07-22T09:19:35.969Z,1016.66
2018-07-22T09:20:36.068Z,1016.61
2018-07-22T09:21:35.987Z,1016.61
2018-07-22T09:22:36.172Z,1016.63
2018-07-22T09:23:36.092Z,1016.64
2018-07-22T09:24:36.092Z,1016.64
2018-07-22T09:25:35.996Z,1016.68
2018-07-22T09:26:35.972Z,1016.68
2018-07-22T09:27:36.059Z,1016.66
2018-07-22T09:28:36.127Z,1016.69
2018-07-22T09:29:36.113Z,1016.68
2018-07-22T09:30:36.277Z,1016.7
2018-07-22T09:31:36.165Z,1016.72
2018-07-22T09:32:36.034Z,1016.74
2018-07-22T09:33:36.232Z,1016.72
2018-07-22T09:34:36.105Z,1016.78
2018-07-22T09:35:36.003Z,1016.76
2018-07-22T09:36:36.590Z,1016.73
2018-07-22T09:37:36.010Z,1016.77
2018-07-22T09:38:36.209Z,1016.79
2018-07-22T09:39:36.010Z,1016.73
2018-07-22T09:40:36.217Z,1016.77
2018-07-22T09:41:36.136Z,1016.79
2018-07-22T09:42:36.098Z,1016.82
2018-07-22T09:43:36.004Z,1016.83
2018-07-22T09:44:36.152Z,1016.84
2018-07-22T09:45:36.050Z,1016.87
2018-07-22T09:46:36.200Z,1016.86
2018-07-22T09:47:36.173Z,1016.84
2018-07-22T09:48:36.294Z,1016.85
2018-07-22T09:49:36.001Z,1016.9
2018-07-22T09:50:36.118Z,1016.87
2018-07-22T09:51:36.323Z,1016.82
2018-07-22T09:52:36.096Z,1016.86
2018-07-22T09:53:36.319Z,1016.83
2018-07-22T09:54:36.012Z,1016.87
2018-07-22T09:55:36.192Z,1016.88
2018-07-22T09:56:36.273Z,1016.8
2018-07-22T09:57:36.174Z,1016.77
2018-07-22T09:58:36.558Z,1016.81
2018-07-22T09:59:36.008Z,1016.82
2018-07-22T10:00:36.042Z,1016.81
2018-07-22T10:01:37.089Z,1016.82
2018-07-22T10:02:36.271Z,1016.83
2018-07-22T10:03:36.274Z,1016.79
2018-07-22T10:04:38.122Z,1016.77
2018-07-22T10:05:36.034Z,1016.78
2018-07-22T10:06:35.970Z,1016.82
2018-07-22T10:07:36.250Z,1016.76
2018-07-22T10:08:35.973Z,1016.77
2018-07-22T10:09:36.093Z,1016.76
2018-07-22T10:10:36.137Z,1016.75
2018-07-22T10:11:36.332Z,1016.75
2018-07-22T10:12:36.303Z,1016.72
2018-07-22T10:13:36.162Z,1016.7
2018-07-22T10:14:36.708Z,1016.7
2018-07-22T10:15:36.096Z,1016.71
2018-07-22T10:16:35.961Z,1016.7
2018-07-22T10:17:36.234Z,1016.68
2018-07-22T10:18:35.922Z,1016.68
2018-07-22T10:19:36.092Z,1016.69
2018-07-22T10:20:36.021Z,1016.64
2018-07-22T10:21:36.024Z,1016.68
2018-07-22T10:22:35.995Z,1016.72
2018-07-22T10:23:36.061Z,1016.69
2018-07-22T10:24:36.161Z,1016.64
2018-07-22T10:25:35.916Z,1016.67
2018-07-22T10:26:36.098Z,1016.6
2018-07-22T10:27:35.993Z,1016.66
2018-07-22T10:28:36.164Z,1016.62
2018-07-22T10:29:35.977Z,1016.65
2018-07-22T10:30:36.186Z,1016.63
2018-07-22T10:31:35.992Z,1016.61
2018-07-22T10:32:36.242Z,1016.66
2018-07-22T10:33:36.158Z,1016.59
2018-07-22T10:34:36.169Z,1016.64
2018-07-22T10:35:35.966Z,1016.6
2018-07-22T10:36:36.125Z,1016.63
2018-07-22T10:37:35.994Z,1016.55
2018-07-22T10:38:36.245Z,1016.55
2018-07-22T10:39:36.297Z,1016.56
2018-07-22T10:40:36.072Z,1016.53
2018-07-22T10:41:36.431Z,1016.55
2018-07-22T10:42:36.278Z,1016.54
2018-07-22T10:43:36.152Z,1016.5
2018-07-22T10:44:35.907Z,1016.46
2018-07-22T10:45:36.014Z,1016.51
2018-07-22T10:46:36.148Z,1016.52
2018-07-22T10:47:36.065Z,1016.49
2018-07-22T10:48:36.238Z,1016.54
2018-07-22T10:49:36.084Z,1016.49
2018-07-22T10:50:36.235Z,1016.52
2018-07-22T10:51:36.162Z,1016.5
2018-07-22T10:52:35.917Z,1016.47
2018-07-22T10:53:36.056Z,1016.44
2018-07-22T10:54:36.215Z,1016.47
2018-07-22T10:55:36.037Z,1016.45
2018-07-22T10:56:36.062Z,1016.51
2018-07-22T10:57:35.884Z,1016.5
2018-07-22T10:58:36.143Z,1016.46
2018-07-22T10:59:35.956Z,1016.45
2018-07-22T11:00:36.099Z,1016.43
2018-07-22T11:01:35.998Z,1016.42
2018-07-22T11:02:36.215Z,1016.4
2018-07-22T11:03:36.279Z,1016.43
2018-07-22T11:04:35.935Z,1016.42
2018-07-22T11:05:36.110Z,1016.45
2018-07-22T11:06:36.008Z,1016.41
2018-07-22T11:07:36.151Z,1016.43
2018-07-22T11:08:36.049Z,1016.48
2018-07-22T11:09:35.948Z,1016.43
2018-07-22T11:10:36.396Z,1016.5
2018-07-22T11:11:36.079Z,1016.44
2018-07-22T11:12:36.321Z,1016.38
2018-07-22T11:13:35.936Z,1016.42
2018-07-22T11:14:36.596Z,1016.39
2018-07-22T11:15:36.186Z,1016.37
2018-07-22T11:16:36.006Z,1016.35
2018-07-22T11:17:35.988Z,1016.35
2018-07-22T11:18:36.394Z,1016.35
2018-07-22T11:19:36.176Z,1016.37
2018-07-22T11:20:36.112Z,1016.31
2018-07-22T11:21:36.089Z,1016.35
2018-07-22T11:22:35.900Z,1016.35
2018-07-22T11:23:36.174Z,1016.38
2018-07-22T11:24:36.030Z,1016.35
2018-07-22T11:25:36.026Z,1016.35
2018-07-22T11:26:36.338Z,1016.37
2018-07-22T11:27:36.298Z,1016.27
2018-07-22T11:28:36.815Z,1016.3
2018-07-22T11:29:36.101Z,1016.27
2018-07-22T11:30:35.927Z,1016.28
2018-07-22T11:31:36.072Z,1016.21
2018-07-22T11:32:36.144Z,1016.24
2018-07-22T11:33:35.990Z,1016.2
2018-07-22T11:34:36.059Z,1016.23
2018-07-22T11:35:35.910Z,1016.27
2018-07-22T11:36:35.932Z,1016.22
2018-07-22T11:37:36.035Z,1016.26
2018-07-22T11:38:35.960Z,1016.24
2018-07-22T11:39:35.998Z,1016.22
2018-07-22T11:40:35.923Z,1016.24
2018-07-22T11:41:36.079Z,1016.17
2018-07-22T11:42:36.184Z,1016.15
2018-07-22T11:43:36.326Z,1016.15
2018-07-22T11:44:35.975Z,1016.19
2018-07-22T11:45:36.029Z,1016.12
2018-07-22T11:46:35.933Z,1016.14
2018-07-22T11:47:35.891Z,1016.16
2018-07-22T11:48:36.316Z,1016.17
2018-07-22T11:49:36.040Z,1016.17
2018-07-22T11:50:36.246Z,1016.18
2018-07-22T11:51:36.156Z,1016.21
2018-07-22T11:52:35.955Z,1016.17
2018-07-22T11:53:36.091Z,1016.17
2018-07-22T11:54:36.067Z,1016.16
2018-07-22T11:55:36.022Z,1016.12
2018-07-22T11:56:36.096Z,1016.13
2018-07-22T11:57:35.894Z,1016.1
2018-07-22T11:58:35.901Z,1016.08
2018-07-22T11:59:36.520Z,1016.07
2018-07-22T12:00:36.121Z,1016.05
2018-07-22T12:01:36.229Z,1016.04
2018-07-22T12:02:36.165Z,1016.06
2018-07-22T12:03:35.902Z,1016.06
2018-07-22T12:04:36.408Z,1016.05
2018-07-22T12:05:36.124Z,1016.04
2018-07-22T12:06:36.132Z,1016.02
2018-07-22T12:07:36.350Z,1016.03
2018-07-22T12:08:36.007Z,1016.03